sensor_id;sensor_type;location;lat;lon;timestamp;P1;durP1;ratioP1;P2;durP2;ratioP2
75061;SDS011;63641;46.526;24.612;2023-10-19T00:00:20;12.68;;;10.10;;
75061;SDS011;63641;46.526;24.612;2023-10-19T00:02:50;11.88;;;9.93;;
75061;SDS011;63641;46.526;24.612;2023-10-19T00:05:18;13.40;;;10.27;;
75061;SDS011;63641;46.526;24.612;2023-10-19T00:07:46;12.77;;;10.50;;
75061;SDS011;63641;46.526;24.612;2023-10-19T00:10:13;11.73;;;9.18;;
75061;SDS011;63641;46.526;24.612;2023-10-19T00:12:42;11.23;;;9.60;;
75061;SDS011;63641;46.526;24.612;2023-10-19T00:15:10;13.63;;;9.52;;
75061;SDS011;63641;46.526;24.612;2023-10-19T00:17:38;11.80;;;9.55;;
75061;SDS011;63641;46.526;24.612;2023-10-19T00:20:06;12.35;;;9.02;;
75061;SDS011;63641;46.526;24.612;2023-10-19T00:22:53;14.38;;;9.25;;
75061;SDS011;63641;46.526;24.612;2023-10-19T00:25:20;12.75;;;8.73;;
75061;SDS011;63641;46.526;24.612;2023-10-19T00:27:49;12.20;;;8.63;;
75061;SDS011;63641;46.526;24.612;2023-10-19T00:30:17;12.43;;;8.93;;
75061;SDS011;63641;46.526;24.612;2023-10-19T00:32:47;11.65;;;9.07;;
75061;SDS011;63641;46.526;24.612;2023-10-19T00:35:14;10.70;;;8.40;;
75061;SDS011;63641;46.526;24.612;2023-10-19T00:37:54;10.30;;;8.65;;
75061;SDS011;63641;46.526;24.612;2023-10-19T00:40:38;12.55;;;8.88;;
75061;SDS011;63641;46.526;24.612;2023-10-19T00:43:07;9.20;;;7.60;;
75061;SDS011;63641;46.526;24.612;2023-10-19T00:45:36;11.25;;;8.70;;
75061;SDS011;63641;46.526;24.612;2023-10-19T00:48:07;10.68;;;8.57;;
75061;SDS011;63641;46.526;24.612;2023-10-19T00:50:37;9.18;;;8.18;;
75061;SDS011;63641;46.526;24.612;2023-10-19T00:53:04;9.45;;;7.38;;
75061;SDS011;63641;46.526;24.612;2023-10-19T00:55:34;11.15;;;8.43;;
75061;SDS011;63641;46.526;24.612;2023-10-19T00:58:02;10.50;;;8.90;;
75061;SDS011;63641;46.526;24.612;2023-10-19T01:06:37;11.50;;;8.23;;
75061;SDS011;63641;46.526;24.612;2023-10-19T01:09:04;10.30;;;8.40;;
75061;SDS011;63641;46.526;24.612;2023-10-19T01:11:31;9.32;;;7.60;;
75061;SDS011;63641;46.526;24.612;2023-10-19T01:14:17;10.15;;;7.88;;
75061;SDS011;63641;46.526;24.612;2023-10-19T01:16:44;8.15;;;7.32;;
75061;SDS011;63641;46.526;24.612;2023-10-19T01:19:12;9.55;;;8.05;;
75061;SDS011;63641;46.526;24.612;2023-10-19T01:21:39;9.57;;;7.82;;
75061;SDS011;63641;46.526;24.612;2023-10-19T01:24:11;9.13;;;7.97;;
75061;SDS011;63641;46.526;24.612;2023-10-19T01:26:43;8.48;;;7.38;;
75061;SDS011;63641;46.526;24.612;2023-10-19T01:29:09;9.35;;;7.85;;
75061;SDS011;63641;46.526;24.612;2023-10-19T01:31:43;8.38;;;7.00;;
75061;SDS011;63641;46.526;24.612;2023-10-19T01:34:42;9.18;;;7.00;;
75061;SDS011;63641;46.526;24.612;2023-10-19T01:37:09;9.77;;;7.38;;
75061;SDS011;63641;46.526;24.612;2023-10-19T01:39:38;10.05;;;8.10;;
75061;SDS011;63641;46.526;24.612;2023-10-19T01:42:08;9.65;;;7.90;;
75061;SDS011;63641;46.526;24.612;2023-10-19T01:44:35;8.95;;;7.40;;
75061;SDS011;63641;46.526;24.612;2023-10-19T01:47:02;9.70;;;7.50;;
75061;SDS011;63641;46.526;24.612;2023-10-19T01:49:32;9.05;;;7.40;;
75061;SDS011;63641;46.526;24.612;2023-10-19T01:51:59;8.85;;;6.97;;
75061;SDS011;63641;46.526;24.612;2023-10-19T01:54:27;8.98;;;7.25;;
75061;SDS011;63641;46.526;24.612;2023-10-19T01:56:54;9.05;;;7.15;;
75061;SDS011;63641;46.526;24.612;2023-10-19T01:59:28;8.55;;;7.32;;
75061;SDS011;63641;46.526;24.612;2023-10-19T02:01:57;9.55;;;6.82;;
75061;SDS011;63641;46.526;24.612;2023-10-19T02:04:24;8.13;;;6.88;;
75061;SDS011;63641;46.526;24.612;2023-10-19T02:06:52;11.23;;;6.85;;
75061;SDS011;63641;46.526;24.612;2023-10-19T02:09:19;8.65;;;6.65;;
75061;SDS011;63641;46.526;24.612;2023-10-19T02:11:53;7.68;;;6.55;;
75061;SDS011;63641;46.526;24.612;2023-10-19T02:14:24;10.43;;;7.60;;
75061;SDS011;63641;46.526;24.612;2023-10-19T02:16:53;8.50;;;7.60;;
75061;SDS011;63641;46.526;24.612;2023-10-19T02:19:26;7.70;;;6.90;;
75061;SDS011;63641;46.526;24.612;2023-10-19T02:21:55;9.70;;;7.22;;
75061;SDS011;63641;46.526;24.612;2023-10-19T02:24:24;8.23;;;6.95;;
75061;SDS011;63641;46.526;24.612;2023-10-19T02:26:53;9.85;;;7.82;;
75061;SDS011;63641;46.526;24.612;2023-10-19T02:29:21;9.85;;;7.93;;
75061;SDS011;63641;46.526;24.612;2023-10-19T02:31:49;10.18;;;7.35;;
75061;SDS011;63641;46.526;24.612;2023-10-19T02:34:16;10.40;;;7.57;;
75061;SDS011;63641;46.526;24.612;2023-10-19T02:36:44;12.70;;;8.73;;
75061;SDS011;63641;46.526;24.612;2023-10-19T02:39:13;11.00;;;8.25;;
75061;SDS011;63641;46.526;24.612;2023-10-19T02:41:47;10.32;;;7.57;;
75061;SDS011;63641;46.526;24.612;2023-10-19T02:44:18;11.18;;;8.18;;
75061;SDS011;63641;46.526;24.612;2023-10-19T02:46:51;8.95;;;7.40;;
75061;SDS011;63641;46.526;24.612;2023-10-19T02:49:27;8.82;;;7.50;;
75061;SDS011;63641;46.526;24.612;2023-10-19T02:51:56;11.82;;;7.78;;
75061;SDS011;63641;46.526;24.612;2023-10-19T02:54:29;13.30;;;8.20;;
75061;SDS011;63641;46.526;24.612;2023-10-19T02:56:59;8.48;;;7.57;;
75061;SDS011;63641;46.526;24.612;2023-10-19T02:59:26;9.10;;;7.63;;
75061;SDS011;63641;46.526;24.612;2023-10-19T03:01:59;8.02;;;6.57;;
75061;SDS011;63641;46.526;24.612;2023-10-19T03:04:39;8.23;;;7.13;;
75061;SDS011;63641;46.526;24.612;2023-10-19T03:07:08;11.75;;;7.38;;
75061;SDS011;63641;46.526;24.612;2023-10-19T03:09:36;8.75;;;6.88;;
75061;SDS011;63641;46.526;24.612;2023-10-19T03:12:03;8.10;;;6.63;;
75061;SDS011;63641;46.526;24.612;2023-10-19T03:14:32;9.15;;;6.45;;
75061;SDS011;63641;46.526;24.612;2023-10-19T03:16:59;7.85;;;7.05;;
75061;SDS011;63641;46.526;24.612;2023-10-19T03:19:27;7.53;;;6.80;;
75061;SDS011;63641;46.526;24.612;2023-10-19T03:21:54;8.15;;;6.72;;
75061;SDS011;63641;46.526;24.612;2023-10-19T03:24:22;9.90;;;7.47;;
75061;SDS011;63641;46.526;24.612;2023-10-19T03:26:50;8.45;;;6.82;;
75061;SDS011;63641;46.526;24.612;2023-10-19T03:29:17;7.75;;;6.47;;
75061;SDS011;63641;46.526;24.612;2023-10-19T03:31:57;7.22;;;6.43;;
75061;SDS011;63641;46.526;24.612;2023-10-19T03:34:27;9.50;;;7.32;;
75061;SDS011;63641;46.526;24.612;2023-10-19T03:37:00;9.00;;;7.50;;
75061;SDS011;63641;46.526;24.612;2023-10-19T03:39:32;8.27;;;6.95;;
75061;SDS011;63641;46.526;24.612;2023-10-19T03:42:00;8.43;;;6.40;;
75061;SDS011;63641;46.526;24.612;2023-10-19T03:44:27;8.38;;;6.10;;
75061;SDS011;63641;46.526;24.612;2023-10-19T03:47:05;7.20;;;5.78;;
75061;SDS011;63641;46.526;24.612;2023-10-19T03:49:38;7.00;;;6.10;;
75061;SDS011;63641;46.526;24.612;2023-10-19T03:52:06;7.80;;;6.30;;
75061;SDS011;63641;46.526;24.612;2023-10-19T03:54:37;8.05;;;6.18;;
75061;SDS011;63641;46.526;24.612;2023-10-19T03:57:13;7.05;;;6.28;;
75061;SDS011;63641;46.526;24.612;2023-10-19T03:59:46;8.07;;;7.07;;
75061;SDS011;63641;46.526;24.612;2023-10-19T04:02:19;6.88;;;6.18;;
75061;SDS011;63641;46.526;24.612;2023-10-19T04:05:01;7.45;;;6.65;;
75061;SDS011;63641;46.526;24.612;2023-10-19T04:07:30;6.93;;;6.22;;
75061;SDS011;63641;46.526;24.612;2023-10-19T04:09:59;8.18;;;6.35;;
75061;SDS011;63641;46.526;24.612;2023-10-19T04:12:36;8.75;;;6.45;;
75061;SDS011;63641;46.526;24.612;2023-10-19T04:15:09;7.32;;;5.38;;
75061;SDS011;63641;46.526;24.612;2023-10-19T04:17:43;6.93;;;5.45;;
75061;SDS011;63641;46.526;24.612;2023-10-19T04:20:12;7.32;;;5.95;;
75061;SDS011;63641;46.526;24.612;2023-10-19T04:22:46;8.85;;;5.35;;
75061;SDS011;63641;46.526;24.612;2023-10-19T04:25:15;7.43;;;5.72;;
75061;SDS011;63641;46.526;24.612;2023-10-19T04:27:43;6.63;;;5.38;;
75061;SDS011;63641;46.526;24.612;2023-10-19T04:30:11;9.27;;;5.68;;
75061;SDS011;63641;46.526;24.612;2023-10-19T04:32:49;8.35;;;5.38;;
75061;SDS011;63641;46.526;24.612;2023-10-19T04:35:17;8.18;;;5.32;;
75061;SDS011;63641;46.526;24.612;2023-10-19T04:37:50;9.52;;;5.88;;
75061;SDS011;63641;46.526;24.612;2023-10-19T04:40:20;7.50;;;5.68;;
75061;SDS011;63641;46.526;24.612;2023-10-19T04:42:53;6.97;;;6.20;;
75061;SDS011;63641;46.526;24.612;2023-10-19T04:45:21;7.22;;;5.65;;
75061;SDS011;63641;46.526;24.612;2023-10-19T04:47:51;6.82;;;5.40;;
75061;SDS011;63641;46.526;24.612;2023-10-19T04:50:19;6.40;;;5.30;;
75061;SDS011;63641;46.526;24.612;2023-10-19T04:52:46;6.35;;;5.72;;
75061;SDS011;63641;46.526;24.612;2023-10-19T04:55:14;6.55;;;5.68;;
75061;SDS011;63641;46.526;24.612;2023-10-19T04:57:41;7.03;;;5.93;;
75061;SDS011;63641;46.526;24.612;2023-10-19T05:00:07;6.53;;;5.70;;
75061;SDS011;63641;46.526;24.612;2023-10-19T05:02:40;6.75;;;6.05;;
75061;SDS011;63641;46.526;24.612;2023-10-19T05:05:08;8.43;;;6.80;;
75061;SDS011;63641;46.526;24.612;2023-10-19T05:07:35;8.23;;;6.35;;
75061;SDS011;63641;46.526;24.612;2023-10-19T05:10:03;9.45;;;6.97;;
75061;SDS011;63641;46.526;24.612;2023-10-19T05:12:32;11.35;;;7.90;;
75061;SDS011;63641;46.526;24.612;2023-10-19T05:14:59;12.70;;;8.88;;
75061;SDS011;63641;46.526;24.612;2023-10-19T05:17:25;11.85;;;8.90;;
75061;SDS011;63641;46.526;24.612;2023-10-19T05:19:53;9.00;;;7.78;;
75061;SDS011;63641;46.526;24.612;2023-10-19T05:22:20;9.18;;;7.40;;
75061;SDS011;63641;46.526;24.612;2023-10-19T05:24:48;8.98;;;7.40;;
75061;SDS011;63641;46.526;24.612;2023-10-19T05:27:14;8.88;;;6.93;;
75061;SDS011;63641;46.526;24.612;2023-10-19T05:29:42;8.27;;;6.70;;
75061;SDS011;63641;46.526;24.612;2023-10-19T05:32:09;8.25;;;6.20;;
75061;SDS011;63641;46.526;24.612;2023-10-19T05:34:36;8.95;;;7.32;;
75061;SDS011;63641;46.526;24.612;2023-10-19T05:37:03;9.48;;;7.95;;
75061;SDS011;63641;46.526;24.612;2023-10-19T05:39:31;9.27;;;6.90;;
75061;SDS011;63641;46.526;24.612;2023-10-19T05:42:00;8.10;;;6.82;;
75061;SDS011;63641;46.526;24.612;2023-10-19T05:44:31;9.75;;;8.07;;
75061;SDS011;63641;46.526;24.612;2023-10-19T05:46:58;9.48;;;7.13;;
75061;SDS011;63641;46.526;24.612;2023-10-19T05:49:26;11.05;;;9.70;;
75061;SDS011;63641;46.526;24.612;2023-10-19T05:51:55;13.20;;;10.20;;
75061;SDS011;63641;46.526;24.612;2023-10-19T05:54:21;14.82;;;11.50;;
75061;SDS011;63641;46.526;24.612;2023-10-19T05:56:50;9.38;;;7.88;;
75061;SDS011;63641;46.526;24.612;2023-10-19T05:59:18;11.32;;;7.97;;
75061;SDS011;63641;46.526;24.612;2023-10-19T06:01:45;13.18;;;8.75;;
75061;SDS011;63641;46.526;24.612;2023-10-19T06:04:15;10.88;;;8.50;;
75061;SDS011;63641;46.526;24.612;2023-10-19T06:06:46;11.90;;;9.35;;
75061;SDS011;63641;46.526;24.612;2023-10-19T06:09:13;12.73;;;9.25;;
75061;SDS011;63641;46.526;24.612;2023-10-19T06:11:42;11.32;;;8.57;;
75061;SDS011;63641;46.526;24.612;2023-10-19T06:14:09;12.73;;;9.95;;
75061;SDS011;63641;46.526;24.612;2023-10-19T06:16:36;12.68;;;9.15;;
75061;SDS011;63641;46.526;24.612;2023-10-19T06:19:03;12.55;;;8.55;;
75061;SDS011;63641;46.526;24.612;2023-10-19T06:21:31;11.75;;;8.55;;
75061;SDS011;63641;46.526;24.612;2023-10-19T06:24:00;9.05;;;7.05;;
75061;SDS011;63641;46.526;24.612;2023-10-19T06:26:27;11.25;;;8.43;;
75061;SDS011;63641;46.526;24.612;2023-10-19T06:28:54;11.23;;;8.63;;
75061;SDS011;63641;46.526;24.612;2023-10-19T06:33:56;11.98;;;9.20;;
75061;SDS011;63641;46.526;24.612;2023-10-19T06:36:24;19.73;;;12.63;;
75061;SDS011;63641;46.526;24.612;2023-10-19T06:38:51;15.35;;;11.65;;
75061;SDS011;63641;46.526;24.612;2023-10-19T06:41:20;20.15;;;12.82;;
75061;SDS011;63641;46.526;24.612;2023-10-19T06:43:47;17.05;;;11.93;;
75061;SDS011;63641;46.526;24.612;2023-10-19T06:46:13;16.33;;;11.27;;
75061;SDS011;63641;46.526;24.612;2023-10-19T06:48:41;13.75;;;10.60;;
75061;SDS011;63641;46.526;24.612;2023-10-19T06:51:09;14.93;;;11.45;;
75061;SDS011;63641;46.526;24.612;2023-10-19T06:53:36;12.15;;;10.13;;
75061;SDS011;63641;46.526;24.612;2023-10-19T06:56:03;16.25;;;10.02;;
75061;SDS011;63641;46.526;24.612;2023-10-19T06:58:30;13.23;;;10.07;;
75061;SDS011;63641;46.526;24.612;2023-10-19T07:00:57;19.08;;;11.70;;
75061;SDS011;63641;46.526;24.612;2023-10-19T07:03:32;17.65;;;12.30;;
75061;SDS011;63641;46.526;24.612;2023-10-19T07:05:58;16.85;;;13.35;;
75061;SDS011;63641;46.526;24.612;2023-10-19T07:08:26;15.45;;;11.95;;
75061;SDS011;63641;46.526;24.612;2023-10-19T07:10:53;19.08;;;13.07;;
75061;SDS011;63641;46.526;24.612;2023-10-19T07:13:20;17.95;;;12.13;;
75061;SDS011;63641;46.526;24.612;2023-10-19T07:15:47;16.77;;;11.55;;
75061;SDS011;63641;46.526;24.612;2023-10-19T07:18:18;14.63;;;11.63;;
75061;SDS011;63641;46.526;24.612;2023-10-19T07:20:45;18.25;;;13.18;;
75061;SDS011;63641;46.526;24.612;2023-10-19T07:23:15;16.08;;;12.32;;
75061;SDS011;63641;46.526;24.612;2023-10-19T07:25:45;14.13;;;10.90;;
75061;SDS011;63641;46.526;24.612;2023-10-19T07:28:15;14.30;;;11.30;;
75061;SDS011;63641;46.526;24.612;2023-10-19T07:30:42;16.10;;;11.10;;
75061;SDS011;63641;46.526;24.612;2023-10-19T07:33:10;13.68;;;10.30;;
75061;SDS011;63641;46.526;24.612;2023-10-19T07:35:47;13.13;;;10.23;;
75061;SDS011;63641;46.526;24.612;2023-10-19T07:38:19;12.35;;;9.65;;
75061;SDS011;63641;46.526;24.612;2023-10-19T07:40:49;11.38;;;8.90;;
75061;SDS011;63641;46.526;24.612;2023-10-19T07:43:19;9.60;;;8.60;;
75061;SDS011;63641;46.526;24.612;2023-10-19T07:45:48;12.93;;;8.30;;
75061;SDS011;63641;46.526;24.612;2023-10-19T07:48:15;9.20;;;7.57;;
75061;SDS011;63641;46.526;24.612;2023-10-19T07:50:43;9.68;;;7.85;;
75061;SDS011;63641;46.526;24.612;2023-10-19T07:53:10;9.52;;;7.75;;
75061;SDS011;63641;46.526;24.612;2023-10-19T07:55:37;9.32;;;7.43;;
75061;SDS011;63641;46.526;24.612;2023-10-19T07:58:05;11.45;;;8.48;;
75061;SDS011;63641;46.526;24.612;2023-10-19T08:00:36;11.00;;;8.23;;
75061;SDS011;63641;46.526;24.612;2023-10-19T08:03:03;11.73;;;8.20;;
75061;SDS011;63641;46.526;24.612;2023-10-19T08:05:32;9.75;;;7.60;;
75061;SDS011;63641;46.526;24.612;2023-10-19T08:08:02;7.13;;;6.43;;
75061;SDS011;63641;46.526;24.612;2023-10-19T08:10:30;7.47;;;6.13;;
75061;SDS011;63641;46.526;24.612;2023-10-19T08:12:58;7.72;;;6.95;;
75061;SDS011;63641;46.526;24.612;2023-10-19T08:15:26;9.15;;;6.18;;
75061;SDS011;63641;46.526;24.612;2023-10-19T08:17:55;7.05;;;6.20;;
75061;SDS011;63641;46.526;24.612;2023-10-19T08:20:22;9.93;;;6.57;;
75061;SDS011;63641;46.526;24.612;2023-10-19T08:22:50;9.02;;;6.20;;
75061;SDS011;63641;46.526;24.612;2023-10-19T08:25:18;9.18;;;6.60;;
75061;SDS011;63641;46.526;24.612;2023-10-19T08:27:45;8.15;;;5.72;;
75061;SDS011;63641;46.526;24.612;2023-10-19T08:30:15;7.20;;;6.05;;
75061;SDS011;63641;46.526;24.612;2023-10-19T08:32:47;7.32;;;6.63;;
75061;SDS011;63641;46.526;24.612;2023-10-19T08:35:17;9.25;;;7.43;;
75061;SDS011;63641;46.526;24.612;2023-10-19T08:37:54;10.73;;;9.07;;
75061;SDS011;63641;46.526;24.612;2023-10-19T08:40:24;11.50;;;9.88;;
75061;SDS011;63641;46.526;24.612;2023-10-19T08:42:53;10.60;;;9.50;;
75061;SDS011;63641;46.526;24.612;2023-10-19T08:45:21;12.40;;;8.38;;
75061;SDS011;63641;46.526;24.612;2023-10-19T08:47:52;9.77;;;7.20;;
75061;SDS011;63641;46.526;24.612;2023-10-19T08:50:24;11.20;;;6.70;;
75061;SDS011;63641;46.526;24.612;2023-10-19T08:52:53;9.55;;;6.82;;
75061;SDS011;63641;46.526;24.612;2023-10-19T08:55:21;8.50;;;6.47;;
75061;SDS011;63641;46.526;24.612;2023-10-19T08:58:08;13.55;;;7.28;;
75061;SDS011;63641;46.526;24.612;2023-10-19T09:00:43;7.97;;;6.15;;
75061;SDS011;63641;46.526;24.612;2023-10-19T09:03:24;7.32;;;5.57;;
75061;SDS011;63641;46.526;24.612;2023-10-19T09:05:53;7.07;;;5.60;;
75061;SDS011;63641;46.526;24.612;2023-10-19T09:08:20;7.63;;;6.00;;
75061;SDS011;63641;46.526;24.612;2023-10-19T09:10:49;8.27;;;5.95;;
75061;SDS011;63641;46.526;24.612;2023-10-19T09:13:18;8.77;;;6.55;;
75061;SDS011;63641;46.526;24.612;2023-10-19T09:15:47;8.63;;;6.72;;
75061;SDS011;63641;46.526;24.612;2023-10-19T09:18:23;6.60;;;5.93;;
75061;SDS011;63641;46.526;24.612;2023-10-19T09:20:55;6.00;;;5.40;;
75061;SDS011;63641;46.526;24.612;2023-10-19T09:23:29;5.78;;;5.25;;
75061;SDS011;63641;46.526;24.612;2023-10-19T09:25:57;5.28;;;4.78;;
75061;SDS011;63641;46.526;24.612;2023-10-19T09:28:36;6.05;;;5.00;;
75061;SDS011;63641;46.526;24.612;2023-10-19T09:31:05;5.75;;;5.20;;
75061;SDS011;63641;46.526;24.612;2023-10-19T09:33:36;6.28;;;5.38;;
75061;SDS011;63641;46.526;24.612;2023-10-19T09:36:06;7.03;;;5.72;;
75061;SDS011;63641;46.526;24.612;2023-10-19T09:38:50;9.50;;;5.45;;
75061;SDS011;63641;46.526;24.612;2023-10-19T09:41:18;6.95;;;5.15;;
75061;SDS011;63641;46.526;24.612;2023-10-19T09:43:49;5.68;;;5.07;;
75061;SDS011;63641;46.526;24.612;2023-10-19T09:46:23;7.85;;;5.80;;
75061;SDS011;63641;46.526;24.612;2023-10-19T09:48:53;6.07;;;5.10;;
75061;SDS011;63641;46.526;24.612;2023-10-19T09:51:19;6.55;;;5.35;;
75061;SDS011;63641;46.526;24.612;2023-10-19T09:56:46;6.75;;;4.78;;
75061;SDS011;63641;46.526;24.612;2023-10-19T09:59:28;6.53;;;5.72;;
75061;SDS011;63641;46.526;24.612;2023-10-19T10:04:33;5.95;;;4.60;;
75061;SDS011;63641;46.526;24.612;2023-10-19T10:07:02;7.45;;;4.90;;
75061;SDS011;63641;46.526;24.612;2023-10-19T10:09:36;5.30;;;4.35;;
75061;SDS011;63641;46.526;24.612;2023-10-19T10:12:26;8.52;;;4.95;;
75061;SDS011;63641;46.526;24.612;2023-10-19T10:14:56;6.05;;;5.40;;
75061;SDS011;63641;46.526;24.612;2023-10-19T10:17:37;6.55;;;5.80;;
75061;SDS011;63641;46.526;24.612;2023-10-19T10:22:41;9.00;;;5.50;;
75061;SDS011;63641;46.526;24.612;2023-10-19T10:25:13;6.60;;;5.72;;
75061;SDS011;63641;46.526;24.612;2023-10-19T10:27:55;6.70;;;5.30;;
75061;SDS011;63641;46.526;24.612;2023-10-19T10:30:22;5.72;;;4.22;;
75061;SDS011;63641;46.526;24.612;2023-10-19T10:32:50;7.30;;;4.40;;
75061;SDS011;63641;46.526;24.612;2023-10-19T10:38:08;6.55;;;4.43;;
75061;SDS011;63641;46.526;24.612;2023-10-19T10:40:44;5.28;;;4.13;;
75061;SDS011;63641;46.526;24.612;2023-10-19T10:43:16;5.70;;;4.15;;
75061;SDS011;63641;46.526;24.612;2023-10-19T10:45:44;4.25;;;3.70;;
75061;SDS011;63641;46.526;24.612;2023-10-19T10:48:14;5.05;;;3.90;;
75061;SDS011;63641;46.526;24.612;2023-10-19T10:50:43;5.15;;;4.47;;
75061;SDS011;63641;46.526;24.612;2023-10-19T10:53:12;7.28;;;4.70;;
75061;SDS011;63641;46.526;24.612;2023-10-19T10:55:40;5.65;;;4.68;;
75061;SDS011;63641;46.526;24.612;2023-10-19T10:58:15;6.50;;;4.53;;
75061;SDS011;63641;46.526;24.612;2023-10-19T11:00:45;7.65;;;4.40;;
75061;SDS011;63641;46.526;24.612;2023-10-19T11:03:18;5.72;;;3.97;;
75061;SDS011;63641;46.526;24.612;2023-10-19T11:05:45;5.10;;;4.60;;
75061;SDS011;63641;46.526;24.612;2023-10-19T11:08:13;5.35;;;4.30;;
75061;SDS011;63641;46.526;24.612;2023-10-19T11:10:42;5.90;;;4.03;;
75061;SDS011;63641;46.526;24.612;2023-10-19T11:13:11;4.32;;;3.92;;
75061;SDS011;63641;46.526;24.612;2023-10-19T11:15:48;6.80;;;4.50;;
75061;SDS011;63641;46.526;24.612;2023-10-19T11:18:35;5.72;;;3.88;;
75061;SDS011;63641;46.526;24.612;2023-10-19T11:21:08;6.82;;;4.22;;
75061;SDS011;63641;46.526;24.612;2023-10-19T11:23:45;7.15;;;4.18;;
75061;SDS011;63641;46.526;24.612;2023-10-19T11:26:15;4.97;;;4.00;;
75061;SDS011;63641;46.526;24.612;2023-10-19T11:28:43;4.90;;;4.10;;
75061;SDS011;63641;46.526;24.612;2023-10-19T11:31:21;6.05;;;4.30;;
75061;SDS011;63641;46.526;24.612;2023-10-19T11:33:50;5.70;;;4.50;;
75061;SDS011;63641;46.526;24.612;2023-10-19T11:36:19;10.27;;;4.50;;
75061;SDS011;63641;46.526;24.612;2023-10-19T11:38:49;7.55;;;4.18;;
75061;SDS011;63641;46.526;24.612;2023-10-19T11:41:17;5.65;;;3.92;;
75061;SDS011;63641;46.526;24.612;2023-10-19T11:43:45;5.32;;;3.92;;
75061;SDS011;63641;46.526;24.612;2023-10-19T11:46:12;5.95;;;4.40;;
75061;SDS011;63641;46.526;24.612;2023-10-19T11:48:41;5.03;;;4.13;;
75061;SDS011;63641;46.526;24.612;2023-10-19T11:51:11;5.13;;;4.13;;
75061;SDS011;63641;46.526;24.612;2023-10-19T11:53:38;5.25;;;4.18;;
75061;SDS011;63641;46.526;24.612;2023-10-19T11:56:08;3.85;;;3.40;;
75061;SDS011;63641;46.526;24.612;2023-10-19T11:58:39;4.13;;;3.70;;
75061;SDS011;63641;46.526;24.612;2023-10-19T12:01:09;5.57;;;3.40;;
75061;SDS011;63641;46.526;24.612;2023-10-19T12:03:39;6.70;;;3.90;;
75061;SDS011;63641;46.526;24.612;2023-10-19T12:06:07;6.18;;;4.15;;
75061;SDS011;63641;46.526;24.612;2023-10-19T12:08:35;4.95;;;3.47;;
75061;SDS011;63641;46.526;24.612;2023-10-19T12:11:02;5.55;;;3.22;;
75061;SDS011;63641;46.526;24.612;2023-10-19T12:13:30;4.18;;;3.30;;
75061;SDS011;63641;46.526;24.612;2023-10-19T12:15:58;4.15;;;3.20;;
75061;SDS011;63641;46.526;24.612;2023-10-19T12:18:25;4.22;;;3.10;;
75061;SDS011;63641;46.526;24.612;2023-10-19T12:20:55;5.75;;;3.50;;
75061;SDS011;63641;46.526;24.612;2023-10-19T12:23:26;4.63;;;3.72;;
75061;SDS011;63641;46.526;24.612;2023-10-19T12:25:52;4.40;;;3.50;;
75061;SDS011;63641;46.526;24.612;2023-10-19T12:28:23;5.47;;;3.55;;
75061;SDS011;63641;46.526;24.612;2023-10-19T12:30:51;4.70;;;3.13;;
75061;SDS011;63641;46.526;24.612;2023-10-19T12:33:18;6.45;;;3.22;;
75061;SDS011;63641;46.526;24.612;2023-10-19T12:35:46;3.80;;;3.20;;
75061;SDS011;63641;46.526;24.612;2023-10-19T12:38:25;4.78;;;3.15;;
75061;SDS011;63641;46.526;24.612;2023-10-19T12:40:53;4.97;;;3.50;;
75061;SDS011;63641;46.526;24.612;2023-10-19T12:43:21;4.13;;;3.35;;
75061;SDS011;63641;46.526;24.612;2023-10-19T12:45:51;4.88;;;3.80;;
75061;SDS011;63641;46.526;24.612;2023-10-19T12:48:22;4.43;;;3.67;;
75061;SDS011;63641;46.526;24.612;2023-10-19T12:50:51;3.75;;;3.38;;
75061;SDS011;63641;46.526;24.612;2023-10-19T12:53:18;5.25;;;3.63;;
75061;SDS011;63641;46.526;24.612;2023-10-19T12:55:48;5.13;;;3.03;;
75061;SDS011;63641;46.526;24.612;2023-10-19T12:58:14;3.78;;;3.10;;
75061;SDS011;63641;46.526;24.612;2023-10-19T13:00:46;3.38;;;2.88;;
75061;SDS011;63641;46.526;24.612;2023-10-19T13:03:15;5.30;;;3.15;;
75061;SDS011;63641;46.526;24.612;2023-10-19T13:05:45;4.53;;;2.80;;
75061;SDS011;63641;46.526;24.612;2023-10-19T13:08:13;3.25;;;2.50;;
75061;SDS011;63641;46.526;24.612;2023-10-19T13:10:41;2.80;;;2.40;;
75061;SDS011;63641;46.526;24.612;2023-10-19T13:13:11;4.13;;;3.00;;
75061;SDS011;63641;46.526;24.612;2023-10-19T13:15:39;3.78;;;2.65;;
75061;SDS011;63641;46.526;24.612;2023-10-19T13:18:08;3.78;;;2.72;;
75061;SDS011;63641;46.526;24.612;2023-10-19T13:20:39;3.72;;;3.17;;
75061;SDS011;63641;46.526;24.612;2023-10-19T13:25:43;2.88;;;2.58;;
75061;SDS011;63641;46.526;24.612;2023-10-19T13:28:13;9.45;;;6.05;;
75061;SDS011;63641;46.526;24.612;2023-10-19T13:30:47;14.77;;;10.00;;
75061;SDS011;63641;46.526;24.612;2023-10-19T13:33:15;14.20;;;7.93;;
75061;SDS011;63641;46.526;24.612;2023-10-19T13:35:44;9.00;;;6.63;;
75061;SDS011;63641;46.526;24.612;2023-10-19T13:38:12;12.52;;;8.80;;
75061;SDS011;63641;46.526;24.612;2023-10-19T13:40:41;15.88;;;9.52;;
75061;SDS011;63641;46.526;24.612;2023-10-19T13:43:09;29.48;;;18.75;;
75061;SDS011;63641;46.526;24.612;2023-10-19T13:45:41;28.38;;;16.50;;
75061;SDS011;63641;46.526;24.612;2023-10-19T13:48:09;23.27;;;14.70;;
75061;SDS011;63641;46.526;24.612;2023-10-19T13:50:41;21.17;;;13.30;;
75061;SDS011;63641;46.526;24.612;2023-10-19T13:53:10;17.48;;;12.50;;
75061;SDS011;63641;46.526;24.612;2023-10-19T13:55:37;17.50;;;10.75;;
75061;SDS011;63641;46.526;24.612;2023-10-19T13:58:03;13.90;;;9.52;;
75061;SDS011;63641;46.526;24.612;2023-10-19T14:00:30;7.25;;;5.45;;
75061;SDS011;63641;46.526;24.612;2023-10-19T14:03:02;7.25;;;5.78;;
75061;SDS011;63641;46.526;24.612;2023-10-19T14:08:04;8.50;;;6.88;;
75061;SDS011;63641;46.526;24.612;2023-10-19T14:10:32;9.20;;;5.63;;
75061;SDS011;63641;46.526;24.612;2023-10-19T14:13:00;7.70;;;5.43;;
75061;SDS011;63641;46.526;24.612;2023-10-19T14:15:27;8.48;;;5.05;;
75061;SDS011;63641;46.526;24.612;2023-10-19T14:17:55;6.70;;;4.25;;
75061;SDS011;63641;46.526;24.612;2023-10-19T14:20:24;6.07;;;4.45;;
75061;SDS011;63641;46.526;24.612;2023-10-19T14:22:51;4.90;;;3.97;;
75061;SDS011;63641;46.526;24.612;2023-10-19T14:25:22;4.45;;;3.55;;
75061;SDS011;63641;46.526;24.612;2023-10-19T14:27:50;5.68;;;3.80;;
75061;SDS011;63641;46.526;24.612;2023-10-19T14:30:22;5.10;;;4.00;;
75061;SDS011;63641;46.526;24.612;2023-10-19T14:32:49;6.13;;;4.53;;
75061;SDS011;63641;46.526;24.612;2023-10-19T14:35:18;6.78;;;4.93;;
75061;SDS011;63641;46.526;24.612;2023-10-19T14:37:50;7.07;;;5.10;;
75061;SDS011;63641;46.526;24.612;2023-10-19T14:40:22;8.10;;;5.25;;
75061;SDS011;63641;46.526;24.612;2023-10-19T14:42:54;6.50;;;4.88;;
75061;SDS011;63641;46.526;24.612;2023-10-19T14:45:23;6.47;;;4.82;;
75061;SDS011;63641;46.526;24.612;2023-10-19T14:47:58;10.40;;;6.40;;
75061;SDS011;63641;46.526;24.612;2023-10-19T14:50:29;11.43;;;7.50;;
75061;SDS011;63641;46.526;24.612;2023-10-19T14:52:56;9.35;;;7.15;;
75061;SDS011;63641;46.526;24.612;2023-10-19T14:55:23;8.80;;;6.75;;
75061;SDS011;63641;46.526;24.612;2023-10-19T14:57:51;8.90;;;6.57;;
75061;SDS011;63641;46.526;24.612;2023-10-19T15:00:20;7.88;;;6.30;;
75061;SDS011;63641;46.526;24.612;2023-10-19T15:02:53;9.20;;;6.82;;
75061;SDS011;63641;46.526;24.612;2023-10-19T15:05:29;9.70;;;6.63;;
75061;SDS011;63641;46.526;24.612;2023-10-19T15:08:02;9.30;;;6.75;;